sensor_id;sensor_type;location;lat;lon;timestamp;P1;durP1;ratioP1;P2;durP2;ratioP2
11203;SDS011;5659;49.408;11.116;2024-02-21T00:01:18;18.23;;;6.10;;
11203;SDS011;5659;49.408;11.116;2024-02-21T00:03:45;18.50;;;5.57;;
11203;SDS011;5659;49.408;11.116;2024-02-21T00:06:11;20.33;;;5.70;;
11203;SDS011;5659;49.408;11.116;2024-02-21T00:08:37;20.63;;;6.13;;
11203;SDS011;5659;49.408;11.116;2024-02-21T00:11:03;15.20;;;5.60;;
11203;SDS011;5659;49.408;11.116;2024-02-21T00:13:29;13.37;;;5.07;;
11203;SDS011;5659;49.408;11.116;2024-02-21T00:15:55;21.30;;;5.50;;
11203;SDS011;5659;49.408;11.116;2024-02-21T00:18:21;18.67;;;5.60;;
11203;SDS011;5659;49.408;11.116;2024-02-21T00:20:47;14.87;;;5.10;;
11203;SDS011;5659;49.408;11.116;2024-02-21T00:23:13;20.30;;;5.33;;
11203;SDS011;5659;49.408;11.116;2024-02-21T00:25:39;13.50;;;4.70;;
11203;SDS011;5659;49.408;11.116;2024-02-21T00:28:05;18.80;;;5.27;;
11203;SDS011;5659;49.408;11.116;2024-02-21T00:30:31;18.23;;;5.40;;
11203;SDS011;5659;49.408;11.116;2024-02-21T00:32:57;14.17;;;4.83;;
11203;SDS011;5659;49.408;11.116;2024-02-21T00:35:23;15.43;;;5.10;;
11203;SDS011;5659;49.408;11.116;2024-02-21T00:37:49;19.13;;;5.80;;
11203;SDS011;5659;49.408;11.116;2024-02-21T00:40:15;18.93;;;5.83;;
11203;SDS011;5659;49.408;11.116;2024-02-21T00:42:45;16.43;;;5.30;;
11203;SDS011;5659;49.408;11.116;2024-02-21T00:45:11;16.70;;;5.67;;
11203;SDS011;5659;49.408;11.116;2024-02-21T00:47:37;14.70;;;5.17;;
11203;SDS011;5659;49.408;11.116;2024-02-21T00:50:03;17.50;;;5.23;;
11203;SDS011;5659;49.408;11.116;2024-02-21T00:52:29;17.73;;;5.37;;
11203;SDS011;5659;49.408;11.116;2024-02-21T00:54:55;16.13;;;5.30;;
11203;SDS011;5659;49.408;11.116;2024-02-21T00:57:21;18.50;;;5.30;;
11203;SDS011;5659;49.408;11.116;2024-02-21T00:59:48;16.17;;;5.20;;
11203;SDS011;5659;49.408;11.116;2024-02-21T01:02:14;13.33;;;4.87;;
11203;SDS011;5659;49.408;11.116;2024-02-21T01:04:40;23.17;;;5.40;;
11203;SDS011;5659;49.408;11.116;2024-02-21T01:07:06;21.23;;;5.77;;
11203;SDS011;5659;49.408;11.116;2024-02-21T01:09:32;16.10;;;5.37;;
11203;SDS011;5659;49.408;11.116;2024-02-21T01:11:58;13.40;;;5.30;;
11203;SDS011;5659;49.408;11.116;2024-02-21T01:14:24;15.50;;;4.73;;
11203;SDS011;5659;49.408;11.116;2024-02-21T01:16:50;18.30;;;5.07;;
11203;SDS011;5659;49.408;11.116;2024-02-21T01:19:16;13.43;;;4.87;;
11203;SDS011;5659;49.408;11.116;2024-02-21T01:21:42;16.60;;;5.30;;
11203;SDS011;5659;49.408;11.116;2024-02-21T01:24:08;15.33;;;4.90;;
11203;SDS011;5659;49.408;11.116;2024-02-21T01:26:34;15.87;;;5.63;;
11203;SDS011;5659;49.408;11.116;2024-02-21T01:29:00;15.00;;;4.47;;
11203;SDS011;5659;49.408;11.116;2024-02-21T01:31:26;17.60;;;5.27;;
11203;SDS011;5659;49.408;11.116;2024-02-21T01:33:52;13.70;;;4.90;;
11203;SDS011;5659;49.408;11.116;2024-02-21T01:36:18;16.77;;;5.20;;
11203;SDS011;5659;49.408;11.116;2024-02-21T01:38:44;17.10;;;4.93;;
11203;SDS011;5659;49.408;11.116;2024-02-21T01:41:10;14.27;;;4.40;;
11203;SDS011;5659;49.408;11.116;2024-02-21T01:43:36;19.97;;;5.37;;
11203;SDS011;5659;49.408;11.116;2024-02-21T01:46:02;14.50;;;5.00;;
11203;SDS011;5659;49.408;11.116;2024-02-21T01:48:28;24.73;;;6.70;;
11203;SDS011;5659;49.408;11.116;2024-02-21T01:50:55;14.57;;;5.20;;
11203;SDS011;5659;49.408;11.116;2024-02-21T01:53:27;15.70;;;4.97;;
11203;SDS011;5659;49.408;11.116;2024-02-21T01:55:53;12.43;;;4.93;;
11203;SDS011;5659;49.408;11.116;2024-02-21T01:58:20;11.57;;;4.60;;
11203;SDS011;5659;49.408;11.116;2024-02-21T02:00:46;19.67;;;5.10;;
11203;SDS011;5659;49.408;11.116;2024-02-21T02:03:13;17.53;;;4.83;;
11203;SDS011;5659;49.408;11.116;2024-02-21T02:05:45;15.97;;;4.97;;
11203;SDS011;5659;49.408;11.116;2024-02-21T02:08:18;19.70;;;5.47;;
11203;SDS011;5659;49.408;11.116;2024-02-21T02:10:44;15.27;;;5.03;;
11203;SDS011;5659;49.408;11.116;2024-02-21T02:13:11;20.53;;;5.87;;
11203;SDS011;5659;49.408;11.116;2024-02-21T02:15:37;16.10;;;5.10;;
11203;SDS011;5659;49.408;11.116;2024-02-21T02:18:04;16.83;;;5.10;;
11203;SDS011;5659;49.408;11.116;2024-02-21T02:20:30;13.63;;;4.83;;
11203;SDS011;5659;49.408;11.116;2024-02-21T02:22:56;22.10;;;5.63;;
11203;SDS011;5659;49.408;11.116;2024-02-21T02:25:23;16.13;;;4.60;;
11203;SDS011;5659;49.408;11.116;2024-02-21T02:27:49;9.70;;;4.80;;
11203;SDS011;5659;49.408;11.116;2024-02-21T02:30:15;15.50;;;4.90;;
11203;SDS011;5659;49.408;11.116;2024-02-21T02:32:44;20.53;;;5.33;;
11203;SDS011;5659;49.408;11.116;2024-02-21T02:35:10;13.90;;;5.10;;
11203;SDS011;5659;49.408;11.116;2024-02-21T02:37:36;14.87;;;5.23;;
11203;SDS011;5659;49.408;11.116;2024-02-21T02:40:04;15.40;;;5.90;;
11203;SDS011;5659;49.408;11.116;2024-02-21T02:42:30;16.40;;;4.80;;
11203;SDS011;5659;49.408;11.116;2024-02-21T02:44:56;14.70;;;5.17;;
11203;SDS011;5659;49.408;11.116;2024-02-21T02:47:22;20.87;;;4.67;;
11203;SDS011;5659;49.408;11.116;2024-02-21T02:49:48;16.00;;;4.60;;
11203;SDS011;5659;49.408;11.116;2024-02-21T02:52:16;16.90;;;5.20;;
11203;SDS011;5659;49.408;11.116;2024-02-21T02:54:42;16.27;;;4.87;;
11203;SDS011;5659;49.408;11.116;2024-02-21T02:57:08;16.40;;;4.93;;
11203;SDS011;5659;49.408;11.116;2024-02-21T02:59:34;15.83;;;4.70;;
11203;SDS011;5659;49.408;11.116;2024-02-21T03:02:01;16.83;;;5.13;;
11203;SDS011;5659;49.408;11.116;2024-02-21T03:04:27;16.03;;;4.87;;
11203;SDS011;5659;49.408;11.116;2024-02-21T03:06:53;19.37;;;5.60;;
11203;SDS011;5659;49.408;11.116;2024-02-21T03:09:19;12.83;;;4.80;;
11203;SDS011;5659;49.408;11.116;2024-02-21T03:11:45;20.03;;;5.43;;
11203;SDS011;5659;49.408;11.116;2024-02-21T03:14:10;19.37;;;5.70;;
11203;SDS011;5659;49.408;11.116;2024-02-21T03:16:37;15.50;;;5.10;;
11203;SDS011;5659;49.408;11.116;2024-02-21T03:19:03;16.63;;;4.77;;
11203;SDS011;5659;49.408;11.116;2024-02-21T03:21:29;18.00;;;4.87;;
11203;SDS011;5659;49.408;11.116;2024-02-21T03:23:55;13.27;;;4.77;;
11203;SDS011;5659;49.408;11.116;2024-02-21T03:26:21;15.00;;;4.67;;
11203;SDS011;5659;49.408;11.116;2024-02-21T03:28:47;14.50;;;5.00;;
11203;SDS011;5659;49.408;11.116;2024-02-21T03:31:13;15.03;;;4.93;;
11203;SDS011;5659;49.408;11.116;2024-02-21T03:33:40;21.13;;;5.13;;
11203;SDS011;5659;49.408;11.116;2024-02-21T03:36:06;18.00;;;5.13;;
11203;SDS011;5659;49.408;11.116;2024-02-21T03:38:38;18.30;;;5.30;;
11203;SDS011;5659;49.408;11.116;2024-02-21T03:41:05;11.93;;;4.70;;
11203;SDS011;5659;49.408;11.116;2024-02-21T03:43:30;13.03;;;5.10;;
11203;SDS011;5659;49.408;11.116;2024-02-21T03:45:56;17.80;;;5.40;;
11203;SDS011;5659;49.408;11.116;2024-02-21T03:48:22;16.10;;;4.73;;
11203;SDS011;5659;49.408;11.116;2024-02-21T03:50:48;21.73;;;5.63;;
11203;SDS011;5659;49.408;11.116;2024-02-21T03:53:14;14.80;;;5.00;;
11203;SDS011;5659;49.408;11.116;2024-02-21T03:55:40;15.30;;;4.50;;
11203;SDS011;5659;49.408;11.116;2024-02-21T03:58:06;15.00;;;4.73;;
11203;SDS011;5659;49.408;11.116;2024-02-21T04:00:32;14.13;;;4.80;;
11203;SDS011;5659;49.408;11.116;2024-02-21T04:02:58;18.90;;;5.07;;
11203;SDS011;5659;49.408;11.116;2024-02-21T04:05:24;20.13;;;4.97;;
11203;SDS011;5659;49.408;11.116;2024-02-21T04:07:50;19.50;;;5.90;;
11203;SDS011;5659;49.408;11.116;2024-02-21T04:10:17;12.03;;;4.87;;
11203;SDS011;5659;49.408;11.116;2024-02-21T04:12:43;23.70;;;5.57;;
11203;SDS011;5659;49.408;11.116;2024-02-21T04:15:09;14.30;;;4.50;;
11203;SDS011;5659;49.408;11.116;2024-02-21T04:17:35;14.97;;;4.70;;
11203;SDS011;5659;49.408;11.116;2024-02-21T04:20:05;14.50;;;5.07;;
11203;SDS011;5659;49.408;11.116;2024-02-21T04:22:32;14.13;;;4.50;;
11203;SDS011;5659;49.408;11.116;2024-02-21T04:24:59;17.60;;;4.43;;
11203;SDS011;5659;49.408;11.116;2024-02-21T04:27:25;17.20;;;5.23;;
11203;SDS011;5659;49.408;11.116;2024-02-21T04:29:51;16.20;;;4.97;;
11203;SDS011;5659;49.408;11.116;2024-02-21T04:32:17;19.33;;;5.00;;
11203;SDS011;5659;49.408;11.116;2024-02-21T04:34:43;14.70;;;4.47;;
11203;SDS011;5659;49.408;11.116;2024-02-21T04:37:09;17.07;;;5.90;;
11203;SDS011;5659;49.408;11.116;2024-02-21T04:39:36;23.33;;;5.50;;
11203;SDS011;5659;49.408;11.116;2024-02-21T04:42:01;19.87;;;5.50;;
11203;SDS011;5659;49.408;11.116;2024-02-21T04:44:28;19.03;;;5.30;;
11203;SDS011;5659;49.408;11.116;2024-02-21T04:46:53;17.47;;;4.80;;
11203;SDS011;5659;49.408;11.116;2024-02-21T04:49:19;15.87;;;5.20;;
11203;SDS011;5659;49.408;11.116;2024-02-21T04:51:45;13.87;;;4.63;;
11203;SDS011;5659;49.408;11.116;2024-02-21T04:54:11;17.77;;;4.67;;
11203;SDS011;5659;49.408;11.116;2024-02-21T04:56:37;17.87;;;5.07;;
11203;SDS011;5659;49.408;11.116;2024-02-21T04:59:03;18.40;;;5.10;;
11203;SDS011;5659;49.408;11.116;2024-02-21T05:01:29;15.37;;;4.70;;
11203;SDS011;5659;49.408;11.116;2024-02-21T05:03:56;15.63;;;5.90;;
11203;SDS011;5659;49.408;11.116;2024-02-21T05:06:22;13.70;;;4.70;;
11203;SDS011;5659;49.408;11.116;2024-02-21T05:08:48;15.63;;;5.57;;
11203;SDS011;5659;49.408;11.116;2024-02-21T05:11:14;17.60;;;4.67;;
11203;SDS011;5659;49.408;11.116;2024-02-21T05:13:40;15.77;;;4.83;;
11203;SDS011;5659;49.408;11.116;2024-02-21T05:16:06;16.60;;;5.43;;
11203;SDS011;5659;49.408;11.116;2024-02-21T05:18:33;14.17;;;5.47;;
11203;SDS011;5659;49.408;11.116;2024-02-21T05:20:59;21.40;;;5.50;;
11203;SDS011;5659;49.408;11.116;2024-02-21T05:23:25;18.80;;;6.30;;
11203;SDS011;5659;49.408;11.116;2024-02-21T05:25:51;18.30;;;5.33;;
11203;SDS011;5659;49.408;11.116;2024-02-21T05:28:17;13.73;;;5.00;;
11203;SDS011;5659;49.408;11.116;2024-02-21T05:30:43;17.03;;;5.50;;
11203;SDS011;5659;49.408;11.116;2024-02-21T05:33:09;19.03;;;5.80;;
11203;SDS011;5659;49.408;11.116;2024-02-21T05:35:35;16.47;;;5.37;;
11203;SDS011;5659;49.408;11.116;2024-02-21T05:38:01;17.27;;;6.17;;
11203;SDS011;5659;49.408;11.116;2024-02-21T05:40:31;18.53;;;5.60;;
11203;SDS011;5659;49.408;11.116;2024-02-21T05:42:57;16.83;;;5.43;;
11203;SDS011;5659;49.408;11.116;2024-02-21T05:45:23;21.87;;;6.07;;
11203;SDS011;5659;49.408;11.116;2024-02-21T05:47:49;24.60;;;6.93;;
11203;SDS011;5659;49.408;11.116;2024-02-21T05:50:15;18.90;;;6.10;;
11203;SDS011;5659;49.408;11.116;2024-02-21T05:52:42;17.40;;;6.30;;
11203;SDS011;5659;49.408;11.116;2024-02-21T05:55:08;18.07;;;6.10;;
11203;SDS011;5659;49.408;11.116;2024-02-21T05:57:34;19.33;;;6.50;;
11203;SDS011;5659;49.408;11.116;2024-02-21T06:00:02;18.73;;;6.73;;
11203;SDS011;5659;49.408;11.116;2024-02-21T06:02:30;21.47;;;7.63;;
11203;SDS011;5659;49.408;11.116;2024-02-21T06:04:56;15.37;;;6.00;;
11203;SDS011;5659;49.408;11.116;2024-02-21T06:07:22;17.93;;;6.47;;
11203;SDS011;5659;49.408;11.116;2024-02-21T06:09:48;19.20;;;6.97;;
11203;SDS011;5659;49.408;11.116;2024-02-21T06:12:14;21.57;;;7.17;;
11203;SDS011;5659;49.408;11.116;2024-02-21T06:14:40;16.43;;;7.00;;
11203;SDS011;5659;49.408;11.116;2024-02-21T06:17:06;12.53;;;6.00;;
11203;SDS011;5659;49.408;11.116;2024-02-21T06:19:32;22.10;;;7.37;;
11203;SDS011;5659;49.408;11.116;2024-02-21T06:21:58;22.33;;;6.53;;
11203;SDS011;5659;49.408;11.116;2024-02-21T06:24:24;19.60;;;7.50;;
11203;SDS011;5659;49.408;11.116;2024-02-21T06:26:50;20.97;;;7.40;;
11203;SDS011;5659;49.408;11.116;2024-02-21T06:29:16;19.07;;;7.07;;
11203;SDS011;5659;49.408;11.116;2024-02-21T06:31:42;14.80;;;6.87;;
11203;SDS011;5659;49.408;11.116;2024-02-21T06:34:08;24.03;;;7.13;;
11203;SDS011;5659;49.408;11.116;2024-02-21T06:36:34;27.80;;;7.90;;
11203;SDS011;5659;49.408;11.116;2024-02-21T06:39:00;18.93;;;7.27;;
11203;SDS011;5659;49.408;11.116;2024-02-21T06:41:26;23.03;;;7.23;;
11203;SDS011;5659;49.408;11.116;2024-02-21T06:43:52;19.37;;;7.40;;
11203;SDS011;5659;49.408;11.116;2024-02-21T06:46:24;17.17;;;8.40;;
11203;SDS011;5659;49.408;11.116;2024-02-21T06:48:50;28.57;;;7.70;;
11203;SDS011;5659;49.408;11.116;2024-02-21T06:51:16;23.40;;;7.77;;
11203;SDS011;5659;49.408;11.116;2024-02-21T06:53:42;26.67;;;7.87;;
11203;SDS011;5659;49.408;11.116;2024-02-21T06:56:09;16.53;;;7.47;;
11203;SDS011;5659;49.408;11.116;2024-02-21T06:58:35;25.77;;;8.77;;
11203;SDS011;5659;49.408;11.116;2024-02-21T07:01:01;27.50;;;8.17;;
11203;SDS011;5659;49.408;11.116;2024-02-21T07:03:27;29.53;;;7.43;;
11203;SDS011;5659;49.408;11.116;2024-02-21T07:05:53;23.87;;;8.33;;
11203;SDS011;5659;49.408;11.116;2024-02-21T07:08:19;24.83;;;7.83;;
11203;SDS011;5659;49.408;11.116;2024-02-21T07:10:45;25.80;;;7.93;;
11203;SDS011;5659;49.408;11.116;2024-02-21T07:13:11;38.57;;;7.23;;
11203;SDS011;5659;49.408;11.116;2024-02-21T07:15:38;31.07;;;7.53;;
11203;SDS011;5659;49.408;11.116;2024-02-21T07:18:04;27.97;;;6.90;;
11203;SDS011;5659;49.408;11.116;2024-02-21T07:20:30;18.53;;;6.43;;
11203;SDS011;5659;49.408;11.116;2024-02-21T07:22:58;23.57;;;6.70;;
11203;SDS011;5659;49.408;11.116;2024-02-21T07:25:24;26.60;;;7.43;;
11203;SDS011;5659;49.408;11.116;2024-02-21T07:27:50;20.70;;;6.37;;
11203;SDS011;5659;49.408;11.116;2024-02-21T07:30:16;21.60;;;7.37;;
11203;SDS011;5659;49.408;11.116;2024-02-21T07:32:42;29.27;;;6.60;;
11203;SDS011;5659;49.408;11.116;2024-02-21T07:35:08;24.03;;;6.80;;
11203;SDS011;5659;49.408;11.116;2024-02-21T07:37:36;20.33;;;6.60;;
11203;SDS011;5659;49.408;11.116;2024-02-21T07:40:02;20.23;;;6.10;;
11203;SDS011;5659;49.408;11.116;2024-02-21T07:42:28;17.60;;;5.80;;
11203;SDS011;5659;49.408;11.116;2024-02-21T07:44:54;23.27;;;6.57;;
11203;SDS011;5659;49.408;11.116;2024-02-21T07:47:21;13.60;;;6.10;;
11203;SDS011;5659;49.408;11.116;2024-02-21T07:49:48;17.13;;;6.47;;
11203;SDS011;5659;49.408;11.116;2024-02-21T07:52:14;14.73;;;5.33;;
11203;SDS011;5659;49.408;11.116;2024-02-21T07:54:40;18.77;;;5.67;;
11203;SDS011;5659;49.408;11.116;2024-02-21T07:57:07;13.03;;;4.77;;
11203;SDS011;5659;49.408;11.116;2024-02-21T07:59:33;21.40;;;4.70;;
11203;SDS011;5659;49.408;11.116;2024-02-21T08:01:59;15.03;;;4.30;;
11203;SDS011;5659;49.408;11.116;2024-02-21T08:04:25;14.37;;;4.80;;
11203;SDS011;5659;49.408;11.116;2024-02-21T08:06:52;14.77;;;5.07;;
11203;SDS011;5659;49.408;11.116;2024-02-21T08:09:18;12.40;;;4.20;;
11203;SDS011;5659;49.408;11.116;2024-02-21T08:11:44;16.80;;;4.50;;
11203;SDS011;5659;49.408;11.116;2024-02-21T08:14:10;34.40;;;4.70;;
11203;SDS011;5659;49.408;11.116;2024-02-21T08:16:36;18.07;;;4.73;;
11203;SDS011;5659;49.408;11.116;2024-02-21T08:19:02;15.17;;;5.47;;
11203;SDS011;5659;49.408;11.116;2024-02-21T08:21:29;15.03;;;4.40;;
11203;SDS011;5659;49.408;11.116;2024-02-21T08:23:55;15.17;;;4.17;;
11203;SDS011;5659;49.408;11.116;2024-02-21T08:26:21;16.43;;;4.50;;
11203;SDS011;5659;49.408;11.116;2024-02-21T08:28:47;11.67;;;4.13;;
11203;SDS011;5659;49.408;11.116;2024-02-21T08:31:18;12.47;;;3.90;;
11203;SDS011;5659;49.408;11.116;2024-02-21T08:33:44;10.80;;;4.00;;
11203;SDS011;5659;49.408;11.116;2024-02-21T08:36:19;13.07;;;4.07;;
11203;SDS011;5659;49.408;11.116;2024-02-21T08:38:46;10.60;;;4.05;;
11203;SDS011;5659;49.408;11.116;2024-02-21T08:41:12;15.63;;;4.03;;
11203;SDS011;5659;49.408;11.116;2024-02-21T08:43:37;8.27;;;3.47;;
11203;SDS011;5659;49.408;11.116;2024-02-21T08:46:04;10.23;;;3.63;;
11203;SDS011;5659;49.408;11.116;2024-02-21T08:48:30;12.38;;;3.65;;
11203;SDS011;5659;49.408;11.116;2024-02-21T08:50:56;10.73;;;3.95;;
11203;SDS011;5659;49.408;11.116;2024-02-21T08:53:22;12.43;;;4.57;;
11203;SDS011;5659;49.408;11.116;2024-02-21T08:55:48;13.82;;;3.55;;
11203;SDS011;5659;49.408;11.116;2024-02-21T08:58:14;13.93;;;4.07;;
11203;SDS011;5659;49.408;11.116;2024-02-21T09:00:40;17.33;;;3.80;;
11203;SDS011;5659;49.408;11.116;2024-02-21T09:03:06;14.60;;;3.95;;
11203;SDS011;5659;49.408;11.116;2024-02-21T09:05:33;14.10;;;3.93;;
11203;SDS011;5659;49.408;11.116;2024-02-21T09:08:00;11.20;;;3.80;;
11203;SDS011;5659;49.408;11.116;2024-02-21T09:10:26;13.73;;;3.97;;
11203;SDS011;5659;49.408;11.116;2024-02-21T09:12:52;14.60;;;3.83;;
11203;SDS011;5659;49.408;11.116;2024-02-21T09:15:18;10.15;;;3.55;;
11203;SDS011;5659;49.408;11.116;2024-02-21T09:17:44;12.73;;;3.65;;
11203;SDS011;5659;49.408;11.116;2024-02-21T09:20:10;14.50;;;4.03;;
11203;SDS011;5659;49.408;11.116;2024-02-21T09:22:37;13.23;;;3.33;;
11203;SDS011;5659;49.408;11.116;2024-02-21T09:25:04;19.13;;;4.40;;
11203;SDS011;5659;49.408;11.116;2024-02-21T09:27:31;12.45;;;3.85;;
11203;SDS011;5659;49.408;11.116;2024-02-21T09:29:57;10.88;;;3.65;;
11203;SDS011;5659;49.408;11.116;2024-02-21T09:32:23;11.57;;;3.70;;
11203;SDS011;5659;49.408;11.116;2024-02-21T09:34:48;16.63;;;3.67;;
11203;SDS011;5659;49.408;11.116;2024-02-21T09:37:15;10.70;;;2.90;;
11203;SDS011;5659;49.408;11.116;2024-02-21T09:39:41;8.43;;;3.08;;
11203;SDS011;5659;49.408;11.116;2024-02-21T09:42:07;10.45;;;3.55;;
11203;SDS011;5659;49.408;11.116;2024-02-21T09:44:36;12.52;;;3.38;;
11203;SDS011;5659;49.408;11.116;2024-02-21T09:47:04;10.82;;;3.47;;
11203;SDS011;5659;49.408;11.116;2024-02-21T09:49:33;9.63;;;2.72;;
11203;SDS011;5659;49.408;11.116;2024-02-21T09:52:03;10.40;;;2.67;;
11203;SDS011;5659;49.408;11.116;2024-02-21T09:54:30;13.23;;;2.83;;
11203;SDS011;5659;49.408;11.116;2024-02-21T09:56:56;10.35;;;2.60;;
11203;SDS011;5659;49.408;11.116;2024-02-21T09:59:22;9.07;;;3.55;;
11203;SDS011;5659;49.408;11.116;2024-02-21T10:01:49;11.25;;;3.10;;
11203;SDS011;5659;49.408;11.116;2024-02-21T10:04:16;9.20;;;3.13;;
11203;SDS011;5659;49.408;11.116;2024-02-21T10:06:43;12.23;;;3.55;;
11203;SDS011;5659;49.408;11.116;2024-02-21T10:09:19;11.75;;;3.08;;
11203;SDS011;5659;49.408;11.116;2024-02-21T10:11:45;9.10;;;3.00;;
11203;SDS011;5659;49.408;11.116;2024-02-21T10:14:11;11.93;;;3.35;;
11203;SDS011;5659;49.408;11.116;2024-02-21T10:16:37;8.00;;;3.13;;
11203;SDS011;5659;49.408;11.116;2024-02-21T10:19:03;9.05;;;2.72;;
11203;SDS011;5659;49.408;11.116;2024-02-21T10:21:29;8.85;;;2.97;;
11203;SDS011;5659;49.408;11.116;2024-02-21T10:23:55;10.68;;;3.10;;
11203;SDS011;5659;49.408;11.116;2024-02-21T10:26:21;6.35;;;2.97;;
11203;SDS011;5659;49.408;11.116;2024-02-21T10:28:47;14.63;;;3.55;;
11203;SDS011;5659;49.408;11.116;2024-02-21T10:31:26;7.70;;;2.75;;
11203;SDS011;5659;49.408;11.116;2024-02-21T10:34:01;10.52;;;2.55;;
11203;SDS011;5659;49.408;11.116;2024-02-21T10:36:28;9.07;;;3.53;;
11203;SDS011;5659;49.408;11.116;2024-02-21T10:38:54;9.82;;;2.88;;
11203;SDS011;5659;49.408;11.116;2024-02-21T10:41:20;10.27;;;3.30;;
11203;SDS011;5659;49.408;11.116;2024-02-21T10:43:49;9.75;;;2.80;;
11203;SDS011;5659;49.408;11.116;2024-02-21T10:46:18;11.82;;;3.03;;
11203;SDS011;5659;49.408;11.116;2024-02-21T10:48:44;10.27;;;2.83;;
11203;SDS011;5659;49.408;11.116;2024-02-21T10:51:18;8.90;;;2.72;;
11203;SDS011;5659;49.408;11.116;2024-02-21T10:53:46;9.93;;;3.35;;
11203;SDS011;5659;49.408;11.116;2024-02-21T10:58:38;9.48;;;2.63;;
11203;SDS011;5659;49.408;11.116;2024-02-21T11:01:04;6.68;;;2.67;;
11203;SDS011;5659;49.408;11.116;2024-02-21T11:03:31;7.97;;;3.10;;
11203;SDS011;5659;49.408;11.116;2024-02-21T11:05:58;8.65;;;2.70;;
11203;SDS011;5659;49.408;11.116;2024-02-21T11:08:24;11.70;;;3.13;;
11203;SDS011;5659;49.408;11.116;2024-02-21T11:10:56;7.88;;;2.72;;
11203;SDS011;5659;49.408;11.116;2024-02-21T11:13:29;9.77;;;2.90;;
11203;SDS011;5659;49.408;11.116;2024-02-21T11:16:05;12.02;;;3.10;;
11203;SDS011;5659;49.408;11.116;2024-02-21T11:18:31;6.50;;;2.53;;
11203;SDS011;5659;49.408;11.116;2024-02-21T11:20:57;10.23;;;2.70;;
11203;SDS011;5659;49.408;11.116;2024-02-21T11:23:26;16.05;;;2.67;;
11203;SDS011;5659;49.408;11.116;2024-02-21T11:25:52;11.40;;;2.85;;
11203;SDS011;5659;49.408;11.116;2024-02-21T11:28:25;9.45;;;2.65;;
11203;SDS011;5659;49.408;11.116;2024-02-21T11:30:51;8.75;;;2.83;;
11203;SDS011;5659;49.408;11.116;2024-02-21T11:33:19;8.13;;;2.53;;
11203;SDS011;5659;49.408;11.116;2024-02-21T11:35:47;7.85;;;3.10;;
11203;SDS011;5659;49.408;11.116;2024-02-21T11:38:13;6.47;;;2.50;;
11203;SDS011;5659;49.408;11.116;2024-02-21T11:40:46;7.22;;;2.33;;
11203;SDS011;5659;49.408;11.116;2024-02-21T11:43:12;10.10;;;2.20;;
11203;SDS011;5659;49.408;11.116;2024-02-21T11:45:38;6.05;;;2.50;;
11203;SDS011;5659;49.408;11.116;2024-02-21T11:48:07;8.25;;;2.50;;
11203;SDS011;5659;49.408;11.116;2024-02-21T11:50:36;7.50;;;2.42;;
11203;SDS011;5659;49.408;11.116;2024-02-21T11:53:04;11.25;;;2.53;;
11203;SDS011;5659;49.408;11.116;2024-02-21T11:55:30;9.98;;;2.50;;
11203;SDS011;5659;49.408;11.116;2024-02-21T11:57:56;5.82;;;2.25;;
11203;SDS011;5659;49.408;11.116;2024-02-21T12:00:23;4.97;;;2.00;;
11203;SDS011;5659;49.408;11.116;2024-02-21T12:02:49;7.38;;;2.53;;
11203;SDS011;5659;49.408;11.116;2024-02-21T12:05:16;7.93;;;2.70;;
11203;SDS011;5659;49.408;11.116;2024-02-21T12:07:42;7.82;;;2.50;;
11203;SDS011;5659;49.408;11.116;2024-02-21T12:10:09;7.85;;;2.30;;
11203;SDS011;5659;49.408;11.116;2024-02-21T12:12:36;8.02;;;2.35;;
11203;SDS011;5659;49.408;11.116;2024-02-21T12:15:03;21.60;;;3.72;;
11203;SDS011;5659;49.408;11.116;2024-02-21T12:17:30;8.10;;;2.60;;
11203;SDS011;5659;49.408;11.116;2024-02-21T12:19:56;10.57;;;2.75;;
11203;SDS011;5659;49.408;11.116;2024-02-21T12:22:22;7.53;;;2.00;;
11203;SDS011;5659;49.408;11.116;2024-02-21T12:24:48;8.25;;;3.30;;
11203;SDS011;5659;49.408;11.116;2024-02-21T12:27:14;8.85;;;2.63;;
11203;SDS011;5659;49.408;11.116;2024-02-21T12:29:40;7.13;;;2.42;;
11203;SDS011;5659;49.408;11.116;2024-02-21T12:32:06;7.47;;;2.40;;
11203;SDS011;5659;49.408;11.116;2024-02-21T12:34:32;10.73;;;2.30;;
11203;SDS011;5659;49.408;11.116;2024-02-21T12:37:01;10.23;;;2.35;;
11203;SDS011;5659;49.408;11.116;2024-02-21T12:39:28;15.73;;;2.65;;
11203;SDS011;5659;49.408;11.116;2024-02-21T12:41:54;8.05;;;2.40;;
11203;SDS011;5659;49.408;11.116;2024-02-21T12:44:23;11.70;;;2.72;;
11203;SDS011;5659;49.408;11.116;2024-02-21T12:46:49;5.35;;;2.30;;
11203;SDS011;5659;49.408;11.116;2024-02-21T12:49:18;11.88;;;2.88;;
11203;SDS011;5659;49.408;11.116;2024-02-21T12:51:44;12.18;;;2.38;;
11203;SDS011;5659;49.408;11.116;2024-02-21T12:54:11;7.68;;;2.75;;
11203;SDS011;5659;49.408;11.116;2024-02-21T12:56:38;6.38;;;2.38;;
11203;SDS011;5659;49.408;11.116;2024-02-21T12:59:05;6.80;;;2.17;;
11203;SDS011;5659;49.408;11.116;2024-02-21T13:01:34;22.17;;;3.60;;
11203;SDS011;5659;49.408;11.116;2024-02-21T13:04:00;9.20;;;2.53;;
11203;SDS011;5659;49.408;11.116;2024-02-21T13:06:26;13.60;;;3.08;;
11203;SDS011;5659;49.408;11.116;2024-02-21T13:08:52;9.38;;;2.25;;
11203;SDS011;5659;49.408;11.116;2024-02-21T13:11:18;13.43;;;2.80;;
11203;SDS011;5659;49.408;11.116;2024-02-21T13:13:45;9.20;;;2.60;;
11203;SDS011;5659;49.408;11.116;2024-02-21T13:16:11;6.05;;;2.63;;
11203;SDS011;5659;49.408;11.116;2024-02-21T13:18:37;6.70;;;2.50;;
11203;SDS011;5659;49.408;11.116;2024-02-21T13:21:06;10.02;;;2.60;;
11203;SDS011;5659;49.408;11.116;2024-02-21T13:23:32;7.72;;;2.17;;
11203;SDS011;5659;49.408;11.116;2024-02-21T13:25:59;6.75;;;2.33;;
11203;SDS011;5659;49.408;11.116;2024-02-21T13:28:24;7.82;;;2.30;;
11203;SDS011;5659;49.408;11.116;2024-02-21T13:30:50;11.30;;;2.60;;
11203;SDS011;5659;49.408;11.116;2024-02-21T13:33:16;6.78;;;2.45;;
11203;SDS011;5659;49.408;11.116;2024-02-21T13:35:42;8.57;;;2.63;;
11203;SDS011;5659;49.408;11.116;2024-02-21T13:38:09;7.50;;;2.30;;
11203;SDS011;5659;49.408;11.116;2024-02-21T13:40:36;6.07;;;2.30;;
11203;SDS011;5659;49.408;11.116;2024-02-21T13:43:02;8.02;;;2.30;;
11203;SDS011;5659;49.408;11.116;2024-02-21T13:45:28;5.22;;;2.13;;
11203;SDS011;5659;49.408;11.116;2024-02-21T13:47:54;10.23;;;2.45;;
11203;SDS011;5659;49.408;11.116;2024-02-21T13:50:23;5.85;;;2.58;;
11203;SDS011;5659;49.408;11.116;2024-02-21T13:52:49;8.68;;;2.47;;
11203;SDS011;5659;49.408;11.116;2024-02-21T13:55:15;7.85;;;2.42;;
11203;SDS011;5659;49.408;11.116;2024-02-21T13:57:42;5.72;;;2.08;;
11203;SDS011;5659;49.408;11.116;2024-02-21T14:00:08;7.30;;;2.30;;
11203;SDS011;5659;49.408;11.116;2024-02-21T14:02:35;9.40;;;2.22;;
11203;SDS011;5659;49.408;11.116;2024-02-21T14:05:02;13.70;;;2.83;;
11203;SDS011;5659;49.408;11.116;2024-02-21T14:07:30;9.35;;;2.40;;
11203;SDS011;5659;49.408;11.116;2024-02-21T14:09:58;4.43;;;1.90;;
11203;SDS011;5659;49.408;11.116;2024-02-21T14:12:24;5.18;;;2.20;;
11203;SDS011;5659;49.408;11.116;2024-02-21T14:14:50;7.40;;;2.28;;
11203;SDS011;5659;49.408;11.116;2024-02-21T14:17:17;6.90;;;2.17;;
11203;SDS011;5659;49.408;11.116;2024-02-21T14:19:42;10.05;;;2.30;;
11203;SDS011;5659;49.408;11.116;2024-02-21T14:22:09;5.70;;;2.08;;
11203;SDS011;5659;49.408;11.116;2024-02-21T14:24:36;6.38;;;2.22;;
11203;SDS011;5659;49.408;11.116;2024-02-21T14:27:02;3.90;;;1.77;;
11203;SDS011;5659;49.408;11.116;2024-02-21T14:29:28;15.13;;;2.25;;
11203;SDS011;5659;49.408;11.116;2024-02-21T14:31:54;12.13;;;2.00;;
11203;SDS011;5659;49.408;11.116;2024-02-21T14:34:20;16.23;;;2.30;;
11203;SDS011;5659;49.408;11.116;2024-02-21T14:36:46;5.43;;;1.90;;